Time,TemperatureF,DewpointF,PressureIn,WindDirection,WindDirectionDegrees,WindSpeedMPH,WindSpeedGustMPH,Humidity,HourlyPrecipIn,Conditions,Clouds,dailyrainin,SoftwareType,DateUTC
2013-01-16 00:05:00,44.8,20.1,30.27,North,0,0.0,0.0,37,0.00,CLR,,0.00,WeatherDisplay:10.37,2013-01-16 08:05:00,
2013-01-16 00:10:00,44.6,20.5,30.27,North,0,0.0,0.0,38,0.00,CLR,,0.00,WeatherDisplay:10.37,2013-01-16 08:10:00,
2013-01-16 00:20:00,44.9,20.8,30.27,North,0,0.0,0.0,38,0.00,CLR,,0.00,WeatherDisplay:10.37,2013-01-16 08:20:00,
2013-01-16 00:25:00,45.0,20.8,30.27,North,0,0.0,0.0,38,0.00,CLR,,0.00,WeatherDisplay:10.37,2013-01-16 08:25:00,
2013-01-16 00:35:00,45.2,21.0,30.26,North,0,0.0,0.0,38,0.00,CLR,,0.00,WeatherDisplay:10.37,2013-01-16 08:35:00,
2013-01-16 00:40:00,44.3,20.8,30.26,North,0,0.0,0.0,39,0.00,CLR,,0.00,WeatherDisplay:10.37,2013-01-16 08:40:00,
2013-01-16 00:50:00,42.8,21.3,30.27,North,0,0.0,0.0,42,0.00,CLR,,0.00,WeatherDisplay:10.37,2013-01-16 08:50:00,
2013-01-16 00:55:00,42.6,21.6,30.27,North,0,0.0,0.0,43,0.00,CLR,,0.00,WeatherDisplay:10.37,2013-01-16 08:55:00,
2013-01-16 01:05:00,44.2,21.4,30.27,North,0,0.0,0.0,40,0.00,CLR,,0.00,WeatherDisplay:10.37,2013-01-16 09:05:00,
2013-01-16 01:10:00,44.6,21.1,30.27,North,0,0.0,0.0,39,0.00,CLR,,0.00,WeatherDisplay:10.37,2013-01-16 09:10:00,
2013-01-16 01:20:00,45.1,21.0,30.26,North,0,0.0,0.0,38,0.00,CLR,,0.00,WeatherDisplay:10.37,2013-01-16 09:20:00,
2013-01-16 01:25:00,45.5,21.3,30.26,North,0,0.0,0.0,38,0.00,CLR,,0.00,WeatherDisplay:10.37,2013-01-16 09:25:00,
2013-01-16 01:35:00,45.7,21.5,30.26,North,0,0.0,0.0,38,0.00,CLR,,0.00,WeatherDisplay:10.37,2013-01-16 09:35:00,
2013-01-16 01:40:00,46.0,21.2,30.26,North,0,0.0,0.0,37,0.00,CLR,,0.00,WeatherDisplay:10.37,2013-01-16 09:40:00,
2013-01-16 01:50:00,46.5,21.6,30.26,North,0,0.0,0.0,37,0.00,CLR,,0.00,WeatherDisplay:10.37,2013-01-16 09:50:00,
2013-01-16 01:55:00,46.6,21.7,30.27,North,0,0.0,0.0,37,0.00,CLR,,0.00,WeatherDisplay:10.37,2013-01-16 09:55:00,
2013-01-16 02:05:00,46.2,22.0,30.27,North,0,0.0,0.0,38,0.00,CLR,,0.00,WeatherDisplay:10.37,2013-01-16 10:05:00,
2013-01-16 02:10:00,46.0,21.8,30.27,North,0,0.0,0.0,38,0.00,CLR,,0.00,WeatherDisplay:10.37,2013-01-16 10:10:00,
2013-01-16 02:20:00,46.4,22.1,30.27,North,0,0.0,0.0,38,0.00,CLR,,0.00,WeatherDisplay:10.37,2013-01-16 10:20:00,
2013-01-16 02:25:00,46.4,22.1,30.27,North,0,0.0,0.0,38,0.00,CLR,,0.00,WeatherDisplay:10.37,2013-01-16 10:25:00,
2013-01-16 02:35:00,46.2,22.0,30.27,North,0,0.0,0.0,38,0.00,CLR,,0.00,WeatherDisplay:10.37,2013-01-16 10:35:00,
2013-01-16 02:40:00,46.0,21.8,30.27,North,0,0.0,0.0,38,0.00,CLR,,0.00,WeatherDisplay:10.37,2013-01-16 10:40:00,
2013-01-16 02:50:00,46.0,21.8,30.27,North,0,0.0,0.0,38,0.00,CLR,,0.00,WeatherDisplay:10.37,2013-01-16 10:50:00,
2013-01-16 02:55:00,45.9,21.7,30.27,North,0,0.0,0.0,38,0.00,CLR,,0.00,WeatherDisplay:10.37,2013-01-16 10:55:00,
2013-01-16 03:05:00,45.9,22.3,30.27,North,0,0.0,0.0,39,0.00,CLR,,0.00,WeatherDisplay:10.37,2013-01-16 11:05:00,
2013-01-16 03:10:00,46.0,21.8,30.27,North,0,0.0,0.0,38,0.00,CLR,,0.00,WeatherDisplay:10.37,2013-01-16 11:10:00,
2013-01-16 03:20:00,46.0,21.8,30.27,North,0,0.0,0.0,38,0.00,CLR,,0.00,WeatherDisplay:10.37,2013-01-16 11:20:00,
2013-01-16 03:25:00,45.9,22.3,30.27,North,0,0.0,0.0,39,0.00,CLR,,0.00,WeatherDisplay:10.37,2013-01-16 11:25:00,
2013-01-16 03:35:00,45.9,22.3,30.27,North,0,0.0,0.0,39,0.00,CLR,,0.00,WeatherDisplay:10.37,2013-01-16 11:35:00,
2013-01-16 03:40:00,45.5,21.9,30.27,North,0,0.0,0.0,39,0.00,CLR,,0.00,WeatherDisplay:10.37,2013-01-16 11:40:00,
2013-01-16 03:50:00,45.7,22.1,30.27,North,0,0.0,0.0,39,0.00,CLR,,0.00,WeatherDisplay:10.37,2013-01-16 11:50:00,
2013-01-16 04:05:00,45.7,22.1,30.26,North,0,0.0,0.0,39,0.00,CLR,,0.00,WeatherDisplay:10.37,2013-01-16 12:05:00,
2013-01-16 04:10:00,45.5,21.9,30.26,North,0,0.0,0.0,39,0.00,CLR,,0.00,WeatherDisplay:10.37,2013-01-16 12:10:00,
2013-01-16 04:20:00,45.7,22.1,30.26,North,0,0.0,0.0,39,0.00,CLR,,0.00,WeatherDisplay:10.37,2013-01-16 12:20:00,
2013-01-16 04:25:00,45.7,22.1,30.26,North,0,0.0,0.0,39,0.00,CLR,,0.00,WeatherDisplay:10.37,2013-01-16 12:25:00,
2013-01-16 04:35:00,45.5,22.6,30.26,North,0,0.0,0.0,40,0.00,CLR,,0.00,WeatherDisplay:10.37,2013-01-16 12:35:00,
2013-01-16 04:40:00,45.7,22.7,30.25,North,0,0.0,0.0,40,0.00,CLR,,0.00,WeatherDisplay:10.37,2013-01-16 12:40:00,
2013-01-16 04:50:00,45.7,22.7,30.25,North,0,0.0,0.0,40,0.00,CLR,,0.00,WeatherDisplay:10.37,2013-01-16 12:50:00,
2013-01-16 04:55:00,45.2,22.3,30.25,North,0,0.0,0.0,40,0.00,CLR,,0.00,WeatherDisplay:10.37,2013-01-16 12:55:00,
2013-01-16 05:05:00,45.3,23.0,30.25,North,0,0.0,0.0,41,0.00,CLR,,0.00,WeatherDisplay:10.37,2013-01-16 13:05:00,
2013-01-16 05:10:00,45.8,22.9,30.25,North,0,0.0,0.0,40,0.00,CLR,,0.00,WeatherDisplay:10.37,2013-01-16 13:10:00,
2013-01-16 05:20:00,46.4,22.8,30.25,North,0,0.0,0.0,39,0.00,CLR,,0.00,WeatherDisplay:10.37,2013-01-16 13:20:00,
2013-01-16 05:25:00,46.4,22.8,30.24,North,0,0.0,0.0,39,0.00,CLR,,0.00,WeatherDisplay:10.37,2013-01-16 13:25:00,
2013-01-16 05:35:00,46.8,23.1,30.24,North,0,0.0,0.0,39,0.00,CLR,,0.00,WeatherDisplay:10.37,2013-01-16 13:35:00,
2013-01-16 05:40:00,47.1,22.8,30.24,North,0,0.0,0.0,38,0.00,CLR,,0.00,WeatherDisplay:10.37,2013-01-16 13:40:00,
2013-01-16 05:50:00,43.9,22.8,30.24,North,0,0.0,0.0,43,0.00,CLR,,0.00,WeatherDisplay:10.37,2013-01-16 13:50:00,
2013-01-16 05:55:00,44.9,23.2,30.24,North,0,0.0,0.0,42,0.00,CLR,,0.00,WeatherDisplay:10.37,2013-01-16 13:55:00,
2013-01-16 06:05:00,45.9,22.9,30.25,North,0,0.0,0.0,40,0.00,CLR,,0.00,WeatherDisplay:10.37,2013-01-16 14:05:00,
2013-01-16 06:10:00,45.9,22.9,30.25,North,0,0.0,0.0,40,0.00,CLR,,0.00,WeatherDisplay:10.37,2013-01-16 14:10:00,
2013-01-16 06:20:00,45.7,22.7,30.25,North,0,0.0,0.0,40,0.00,CLR,,0.00,WeatherDisplay:10.37,2013-01-16 14:20:00,
2013-01-16 06:25:00,45.7,22.7,30.25,North,0,0.0,0.0,40,0.00,CLR,,0.00,WeatherDisplay:10.37,2013-01-16 14:25:00,
2013-01-16 06:35:00,45.7,22.7,30.26,North,0,0.0,0.0,40,0.00,CLR,,0.00,WeatherDisplay:10.37,2013-01-16 14:35:00,
2013-01-16 06:40:00,45.5,22.5,30.26,North,0,0.0,0.0,40,0.00,CLR,,0.00,WeatherDisplay:10.37,2013-01-16 14:40:00,
2013-01-16 06:50:00,45.5,22.5,30.26,North,0,0.0,0.0,40,0.00,CLR,,0.00,WeatherDisplay:10.37,2013-01-16 14:50:00,
2013-01-16 06:55:00,45.5,22.5,30.26,North,0,0.0,0.0,40,0.00,CLR,,0.00,WeatherDisplay:10.37,2013-01-16 14:55:00,
2013-01-16 07:05:00,45.7,22.7,30.26,North,0,0.0,0.0,40,0.00,CLR,,0.00,WeatherDisplay:10.37,2013-01-16 15:05:00,
2013-01-16 07:10:00,45.8,22.8,30.26,North,0,0.0,0.0,40,0.00,CLR,,0.00,WeatherDisplay:10.37,2013-01-16 15:10:00,
2013-01-16 07:20:00,46.4,22.8,30.26,North,0,0.0,0.0,39,0.00,CLR,,0.00,WeatherDisplay:10.37,2013-01-16 15:20:00,
2013-01-16 07:25:00,46.8,22.5,30.27,North,0,0.0,0.0,38,0.00,CLR,,0.00,WeatherDisplay:10.37,2013-01-16 15:25:00,
2013-01-16 07:35:00,47.1,22.8,30.27,North,0,0.0,0.0,38,0.00,CLR,,0.00,WeatherDisplay:10.37,2013-01-16 15:35:00,
2013-01-16 07:40:00,47.5,23.1,30.27,North,0,0.0,0.0,38,0.00,CLR,,0.00,WeatherDisplay:10.37,2013-01-16 15:40:00,
2013-01-16 07:50:00,48.2,23.7,30.27,North,0,0.0,0.0,38,0.00,CLR,,0.00,WeatherDisplay:10.37,2013-01-16 15:50:00,
2013-01-16 07:55:00,48.6,24.1,30.27,North,0,0.0,0.0,38,0.00,CLR,,0.00,WeatherDisplay:10.37,2013-01-16 15:55:00,
2013-01-16 08:05:00,48.7,23.6,30.27,North,0,0.0,0.0,37,0.00,CLR,,0.00,WeatherDisplay:10.37,2013-01-16 16:05:00,
2013-01-16 08:10:00,48.9,24.4,30.27,North,0,0.0,0.0,38,0.00,CLR,,0.00,WeatherDisplay:10.37,2013-01-16 16:10:00,
2013-01-16 08:20:00,48.9,23.8,30.28,North,0,0.0,0.0,37,0.00,SCT,,0.00,WeatherDisplay:10.37,2013-01-16 16:20:00,
2013-01-16 08:25:00,48.9,24.4,30.28,North,0,0.0,0.0,38,0.00,SCT,,0.00,WeatherDisplay:10.37,2013-01-16 16:25:00,
2013-01-16 08:35:00,49.6,25.0,30.28,North,0,0.0,0.0,38,0.00,SCT,,0.00,WeatherDisplay:10.37,2013-01-16 16:35:00,
2013-01-16 08:40:00,49.8,24.6,30.28,North,0,0.0,0.0,37,0.00,SCT,,0.00,WeatherDisplay:10.37,2013-01-16 16:40:00,
2013-01-16 08:50:00,50.0,24.1,30.29,North,0,0.0,0.0,36,0.00,SCT,,0.00,WeatherDisplay:10.37,2013-01-16 16:50:00,
2013-01-16 08:55:00,50.3,24.3,30.29,North,0,0.0,0.0,36,0.00,SCT,,0.00,WeatherDisplay:10.37,2013-01-16 16:55:00,
2013-01-16 09:05:00,50.4,23.7,30.28,North,0,0.0,0.0,35,0.00,CLR,,0.00,WeatherDisplay:10.37,2013-01-16 17:05:00,
2013-01-16 09:10:00,50.7,24.7,30.28,North,0,0.0,0.0,36,0.00,CLR,,0.00,WeatherDisplay:10.37,2013-01-16 17:10:00,
2013-01-16 09:20:00,51.6,24.2,30.28,North,0,0.0,0.0,34,0.00,CLR,,0.00,WeatherDisplay:10.37,2013-01-16 17:20:00,
2013-01-16 09:25:00,51.8,24.3,30.28,North,0,0.0,0.0,34,0.00,CLR,,0.00,WeatherDisplay:10.37,2013-01-16 17:25:00,
2013-01-16 09:35:00,52.7,27.1,30.28,North,0,0.0,0.0,37,0.00,CLR,,0.00,WeatherDisplay:10.37,2013-01-16 17:35:00,
2013-01-16 09:40:00,52.9,25.2,30.27,North,0,0.0,0.0,34,0.00,CLR,,0.00,WeatherDisplay:10.37,2013-01-16 17:40:00,
2013-01-16 09:50:00,52.9,25.2,30.27,North,0,0.0,0.0,34,0.00,CLR,,0.00,WeatherDisplay:10.37,2013-01-16 17:50:00,
2013-01-16 09:55:00,53.2,24.8,30.27,North,0,0.0,0.0,33,0.00,CLR,,0.00,WeatherDisplay:10.37,2013-01-16 17:55:00,
2013-01-16 10:05:00,53.4,25.0,30.27,North,0,0.0,0.0,33,0.00,CLR,,0.00,WeatherDisplay:10.37,2013-01-16 18:05:00,
2013-01-16 10:10:00,53.6,24.4,30.27,North,0,0.0,0.0,32,0.00,CLR,,0.00,WeatherDisplay:10.37,2013-01-16 18:10:00,
2013-01-16 10:20:00,54.0,25.5,30.27,North,0,0.0,0.0,33,0.00,CLR,,0.00,WeatherDisplay:10.37,2013-01-16 18:20:00,
2013-01-16 10:25:00,54.0,24.7,30.27,North,0,0.0,0.0,32,0.00,CLR,,0.00,WeatherDisplay:10.37,2013-01-16 18:25:00,
2013-01-16 10:35:00,53.6,24.4,30.26,North,0,0.0,0.0,32,0.00,CLR,,0.00,WeatherDisplay:10.37,2013-01-16 18:35:00,
2013-01-16 10:40:00,54.1,24.9,30.26,North,0,0.0,0.0,32,0.00,CLR,,0.00,WeatherDisplay:10.37,2013-01-16 18:40:00,
2013-01-16 10:50:00,54.2,24.2,30.26,North,0,0.0,0.0,31,0.00,CLR,,0.00,WeatherDisplay:10.37,2013-01-16 18:50:00,
2013-01-16 10:55:00,53.9,24.7,30.25,North,0,0.0,0.0,32,0.00,CLR,,0.00,WeatherDisplay:10.37,2013-01-16 18:55:00,
2013-01-16 11:05:00,54.1,24.1,30.25,North,0,0.0,0.0,31,0.00,CLR,,0.00,WeatherDisplay:10.37,2013-01-16 19:05:00,
2013-01-16 11:10:00,54.3,24.3,30.24,North,0,0.0,0.0,31,0.00,CLR,,0.00,WeatherDisplay:10.37,2013-01-16 19:10:00,
2013-01-16 11:20:00,54.8,24.0,30.24,North,0,0.0,0.0,30,0.00,CLR,,0.00,WeatherDisplay:10.37,2013-01-16 19:20:00,
2013-01-16 11:25:00,54.7,23.8,30.24,North,0,0.0,0.0,30,0.00,CLR,,0.00,WeatherDisplay:10.37,2013-01-16 19:25:00,
2013-01-16 11:35:00,55.0,24.9,30.23,North,0,0.0,0.0,31,0.00,CLR,,0.00,WeatherDisplay:10.37,2013-01-16 19:35:00,
2013-01-16 11:40:00,55.1,24.2,30.23,North,0,0.0,0.0,30,0.00,CLR,,0.00,WeatherDisplay:10.37,2013-01-16 19:40:00,
2013-01-16 11:50:00,55.6,25.4,30.22,North,0,0.0,0.0,31,0.00,CLR,,0.00,WeatherDisplay:10.37,2013-01-16 19:50:00,
2013-01-16 11:55:00,55.9,24.9,30.22,North,0,0.0,0.0,30,0.00,CLR,,0.00,WeatherDisplay:10.37,2013-01-16 19:55:00,
2013-01-16 12:05:00,56.1,24.3,30.22,North,0,0.0,0.0,29,0.00,CLR,,0.00,WeatherDisplay:10.37,2013-01-16 20:05:00,
2013-01-16 12:10:00,56.1,24.3,30.21,North,0,0.0,0.0,29,0.00,CLR,,0.00,WeatherDisplay:10.37,2013-01-16 20:10:00,
2013-01-16 12:20:00,56.5,25.4,30.20,North,0,0.0,0.0,30,0.00,CLR,,0.00,WeatherDisplay:10.37,2013-01-16 20:20:00,
2013-01-16 12:25:00,57.5,25.5,30.20,North,0,0.0,0.0,29,0.00,CLR,,0.00,WeatherDisplay:10.37,2013-01-16 20:25:00,
2013-01-16 12:35:00,57.2,24.3,30.19,North,0,0.0,0.0,28,0.00,CLR,,0.00,WeatherDisplay:10.37,2013-01-16 20:35:00,
2013-01-16 12:40:00,57.9,25.8,30.19,North,0,0.0,0.0,29,0.00,CLR,,0.00,WeatherDisplay:10.37,2013-01-16 20:40:00,
2013-01-16 12:50:00,57.6,25.5,30.19,North,0,0.0,0.0,29,0.00,CLR,,0.00,WeatherDisplay:10.37,2013-01-16 20:50:00,
2013-01-16 12:55:00,57.4,24.5,30.19,North,0,0.0,0.0,28,0.00,CLR,,0.00,WeatherDisplay:10.37,2013-01-16 20:55:00,
2013-01-16 13:05:00,57.4,24.5,30.18,North,0,0.0,0.0,28,0.00,CLR,,0.00,WeatherDisplay:10.37,2013-01-16 21:05:00,
2013-01-16 13:10:00,57.6,24.7,30.18,North,0,0.0,0.0,28,0.00,CLR,,0.00,WeatherDisplay:10.37,2013-01-16 21:10:00,
2013-01-16 13:20:00,57.9,25.0,30.17,North,0,0.0,0.0,28,0.00,CLR,,0.00,WeatherDisplay:10.37,2013-01-16 21:20:00,
2013-01-16 13:35:00,59.0,25.0,30.17,SE,125,8.0,8.0,27,0.00,CLR,,0.00,WeatherDisplay:10.37,2013-01-16 21:35:00,
2013-01-16 13:40:00,58.6,24.7,30.17,ESE,123,9.0,10.0,27,0.00,CLR,,0.00,WeatherDisplay:10.37,2013-01-16 21:40:00,
2013-01-16 13:50:00,59.2,26.1,30.17,ESE,107,3.0,6.0,28,0.00,CLR,,0.00,WeatherDisplay:10.37,2013-01-16 21:50:00,
2013-01-16 13:55:00,59.4,24.4,30.17,East,95,6.0,6.0,26,0.00,CLR,,0.00,WeatherDisplay:10.37,2013-01-16 21:55:00,
2013-01-16 14:05:00,59.4,23.5,30.17,SE,131,8.0,9.0,25,0.00,CLR,,0.00,WeatherDisplay:10.37,2013-01-16 22:05:00,
2013-01-16 14:10:00,58.8,25.8,30.17,ESE,117,7.0,9.0,28,0.00,CLR,,0.00,WeatherDisplay:10.37,2013-01-16 22:10:00,
2013-01-16 14:20:00,57.9,25.0,30.17,ESE,102,6.0,14.0,28,0.00,CLR,,0.00,WeatherDisplay:10.37,2013-01-16 22:20:00,
2013-01-16 14:35:00,58.5,24.6,30.17,East,99,7.0,7.0,27,0.00,CLR,,0.00,WeatherDisplay:10.37,2013-01-16 22:35:00,
2013-01-16 14:40:00,58.6,24.7,30.17,East,86,6.0,7.0,27,0.00,CLR,,0.00,WeatherDisplay:10.37,2013-01-16 22:40:00,
2013-01-16 14:50:00,58.4,24.5,30.17,SE,131,10.0,13.0,27,0.00,CLR,,0.00,WeatherDisplay:10.37,2013-01-16 22:50:00,
2013-01-16 14:55:00,58.2,22.5,30.17,ESE,116,9.0,13.0,25,0.00,CLR,,0.00,WeatherDisplay:10.37,2013-01-16 22:55:00,
2013-01-16 15:05:00,58.3,24.4,30.17,ESE,105,7.0,10.0,27,0.00,CLR,,0.00,WeatherDisplay:10.37,2013-01-16 23:05:00,
2013-01-16 15:10:00,58.3,24.4,30.17,ESE,110,8.0,9.0,27,0.00,CLR,,0.00,WeatherDisplay:10.37,2013-01-16 23:10:00,
2013-01-16 15:20:00,57.7,23.9,30.18,ESE,108,8.0,10.0,27,0.00,CLR,,0.00,WeatherDisplay:10.37,2013-01-16 23:20:00,
2013-01-16 15:25:00,57.6,23.8,30.18,East,96,7.0,9.0,27,0.00,CLR,,0.00,WeatherDisplay:10.37,2013-01-16 23:25:00,
2013-01-16 15:35:00,57.6,23.8,30.18,East,87,8.0,8.0,27,0.00,CLR,,0.00,WeatherDisplay:10.37,2013-01-16 23:35:00,
2013-01-16 15:40:00,57.4,23.6,30.18,East,82,7.0,9.0,27,0.00,CLR,,0.00,WeatherDisplay:10.37,2013-01-16 23:40:00,
2013-01-16 15:50:00,57.2,23.5,30.18,East,97,8.0,9.0,27,0.00,CLR,,0.00,WeatherDisplay:10.37,2013-01-16 23:50:00,
2013-01-16 15:55:00,56.9,23.3,30.18,East,92,7.0,9.0,27,0.00,CLR,,0.00,WeatherDisplay:10.37,2013-01-16 23:55:00,
2013-01-16 16:05:00,56.7,23.0,30.18,ENE,76,10.0,12.0,27,0.00,CLR,,0.00,WeatherDisplay:10.37,2013-01-17 00:05:00,
2013-01-16 16:10:00,56.5,22.9,30.18,ENE,77,8.0,12.0,27,0.00,CLR,,0.00,WeatherDisplay:10.37,2013-01-17 00:10:00,
2013-01-16 16:20:00,55.8,23.2,30.18,ENE,74,8.0,10.0,28,0.00,CLR,,0.00,WeatherDisplay:10.37,2013-01-17 00:20:00,
2013-01-16 16:25:00,55.8,23.1,30.18,ENE,77,8.0,12.0,28,0.00,CLR,,0.00,WeatherDisplay:10.37,2013-01-17 00:25:00,
2013-01-16 16:35:00,55.1,22.6,30.18,East,82,7.0,12.0,28,0.00,CLR,,0.00,WeatherDisplay:10.37,2013-01-17 00:35:00,
2013-01-16 16:40:00,55.0,23.2,30.18,ENE,74,3.0,8.0,29,0.00,CLR,,0.00,WeatherDisplay:10.37,2013-01-17 00:40:00,
2013-01-16 16:50:00,54.4,22.8,30.18,ENE,64,8.0,9.0,29,0.00,CLR,,0.00,WeatherDisplay:10.37,2013-01-17 00:50:00,
2013-01-16 16:55:00,54.1,22.5,30.19,ENE,66,7.0,9.0,29,0.00,CLR,,0.00,WeatherDisplay:10.37,2013-01-17 00:55:00,
2013-01-16 17:05:00,53.8,22.2,30.19,ENE,57,7.0,8.0,29,0.00,CLR,,0.00,WeatherDisplay:10.37,2013-01-17 01:05:00,
2013-01-16 17:10:00,53.6,22.1,30.19,ENE,61,5.0,10.0,29,0.00,CLR,,0.00,WeatherDisplay:10.37,2013-01-17 01:10:00,
2013-01-16 17:20:00,53.2,21.8,30.19,NE,46,7.0,8.0,29,0.00,CLR,,0.00,WeatherDisplay:10.37,2013-01-17 01:20:00,
2013-01-16 17:25:00,53.1,21.6,30.19,NE,44,9.0,10.0,29,0.00,CLR,,0.00,WeatherDisplay:10.37,2013-01-17 01:25:00,
2013-01-16 17:35:00,52.7,21.3,30.19,NE,52,5.0,6.0,29,0.00,CLR,,0.00,WeatherDisplay:10.37,2013-01-17 01:35:00,
2013-01-16 17:40:00,52.5,21.1,30.18,NE,37,7.0,8.0,29,0.00,CLR,,0.00,WeatherDisplay:10.37,2013-01-17 01:40:00,
2013-01-16 17:50:00,52.5,21.1,30.18,NE,43,7.0,9.0,29,0.00,CLR,,0.00,WeatherDisplay:10.37,2013-01-17 01:50:00,
2013-01-16 18:05:00,52.0,21.5,30.18,NNE,27,10.0,15.0,30,0.00,CLR,,0.00,WeatherDisplay:10.37,2013-01-17 02:05:00,
2013-01-16 18:10:00,51.8,21.3,30.18,NNE,20,8.0,10.0,30,0.00,CLR,,0.00,WeatherDisplay:10.37,2013-01-17 02:10:00,
2013-01-16 18:20:00,51.8,20.5,30.18,NE,39,8.0,10.0,29,0.00,CLR,,0.00,WeatherDisplay:10.37,2013-01-17 02:20:00,
2013-01-16 18:25:00,51.8,20.5,30.18,NNE,20,8.0,10.0,29,0.00,CLR,,0.00,WeatherDisplay:10.37,2013-01-17 02:25:00,
2013-01-16 18:35:00,51.8,20.5,30.19,NNE,33,7.0,10.0,29,0.00,CLR,,0.00,WeatherDisplay:10.37,2013-01-17 02:35:00,
2013-01-16 18:40:00,51.8,20.5,30.19,NNE,33,7.0,10.0,29,0.00,CLR,,0.00,WeatherDisplay:10.37,2013-01-17 02:40:00,
2013-01-16 18:50:00,52.0,19.8,30.19,NNE,30,8.0,13.0,28,0.00,CLR,,0.00,WeatherDisplay:10.37,2013-01-17 02:50:00,
2013-01-16 18:55:00,51.7,20.4,30.19,NNE,27,9.0,13.0,29,0.00,CLR,,0.00,WeatherDisplay:10.37,2013-01-17 02:55:00,
2013-01-16 19:05:00,51.5,19.4,30.19,NE,36,9.0,12.0,28,0.00,CLR,,0.00,WeatherDisplay:10.37,2013-01-17 03:05:00,
2013-01-16 19:10:00,52.0,19.8,30.19,NE,49,7.0,14.0,28,0.00,CLR,,0.00,WeatherDisplay:10.37,2013-01-17 03:10:00,
2013-01-16 19:20:00,51.8,19.7,30.19,NE,36,8.0,15.0,28,0.00,CLR,,0.00,WeatherDisplay:10.37,2013-01-17 03:20:00,
2013-01-16 19:25:00,51.9,19.7,30.19,NE,41,12.0,16.0,28,0.00,CLR,,0.00,WeatherDisplay:10.37,2013-01-17 03:25:00,
2013-01-16 19:35:00,51.7,19.6,30.19,NE,44,8.0,13.0,28,0.00,CLR,,0.00,WeatherDisplay:10.37,2013-01-17 03:35:00,
2013-01-16 19:40:00,51.8,19.7,30.19,NE,51,9.0,15.0,28,0.00,CLR,,0.00,WeatherDisplay:10.37,2013-01-17 03:40:00,
2013-01-16 19:50:00,52.0,19.0,30.18,ENE,61,10.0,14.0,27,0.00,CLR,,0.00,WeatherDisplay:10.37,2013-01-17 03:50:00,
2013-01-16 19:55:00,52.0,19.0,30.19,ENE,64,10.0,16.0,27,0.00,CLR,,0.00,WeatherDisplay:10.37,2013-01-17 03:55:00,
2013-01-16 20:05:00,51.5,19.4,30.18,NE,42,10.0,14.0,28,0.00,CLR,,0.00,WeatherDisplay:10.37,2013-01-17 04:05:00,
2013-01-16 20:10:00,51.8,18.9,30.18,NE,45,9.0,14.0,27,0.00,CLR,,0.00,WeatherDisplay:10.37,2013-01-17 04:10:00,
2013-01-16 20:20:00,51.9,19.0,30.18,NE,56,9.0,14.0,27,0.00,CLR,,0.00,WeatherDisplay:10.37,2013-01-17 04:20:00,
2013-01-16 20:25:00,51.8,18.8,30.18,ENE,57,7.0,15.0,27,0.00,CLR,,0.00,WeatherDisplay:10.37,2013-01-17 04:25:00,
2013-01-16 20:35:00,51.4,19.4,30.18,NE,46,8.0,12.0,28,0.00,CLR,,0.00,WeatherDisplay:10.37,2013-01-17 04:35:00,
2013-01-16 20:40:00,51.5,18.6,30.18,NE,51,13.0,16.0,27,0.00,CLR,,0.00,WeatherDisplay:10.37,2013-01-17 04:40:00,
2013-01-16 20:50:00,52.0,19.0,30.18,ENE,69,9.0,16.0,27,0.00,CLR,,0.00,WeatherDisplay:10.37,2013-01-17 04:50:00,
2013-01-16 20:55:00,52.3,17.5,30.18,ENE,69,9.0,16.0,25,0.00,CLR,,0.00,WeatherDisplay:10.37,2013-01-17 04:55:00,
2013-01-16 21:05:00,52.9,18.0,30.18,East,84,7.0,23.0,25,0.00,CLR,,0.00,WeatherDisplay:10.37,2013-01-17 05:05:00,
2013-01-16 21:10:00,52.7,17.8,30.18,ENE,66,7.0,14.0,25,0.00,CLR,,0.00,WeatherDisplay:10.37,2013-01-17 05:10:00,
2013-01-16 21:20:00,52.5,17.7,30.17,ENE,57,6.0,18.0,25,0.00,CLR,,0.00,WeatherDisplay:10.37,2013-01-17 05:20:00,
2013-01-16 21:25:00,52.4,17.6,30.17,NE,42,8.0,15.0,25,0.00,CLR,,0.00,WeatherDisplay:10.37,2013-01-17 05:25:00,
2013-01-16 21:35:00,52.7,17.8,30.17,NE,54,10.0,15.0,25,0.00,CLR,,0.00,WeatherDisplay:10.37,2013-01-17 05:35:00,
2013-01-16 21:40:00,52.5,17.6,30.17,NE,50,9.0,15.0,25,0.00,CLR,,0.00,WeatherDisplay:10.37,2013-01-17 05:40:00,
2013-01-16 21:50:00,52.6,17.7,30.17,ENE,74,14.0,19.0,25,0.00,CLR,,0.00,WeatherDisplay:10.37,2013-01-17 05:50:00,
2013-01-16 21:55:00,52.7,17.8,30.17,ENE,57,13.0,18.0,25,0.00,CLR,,0.00,WeatherDisplay:10.37,2013-01-17 05:55:00,
2013-01-16 22:05:00,52.7,17.8,30.17,ENE,66,10.0,15.0,25,0.00,CLR,,0.00,WeatherDisplay:10.37,2013-01-17 06:05:00,
2013-01-16 22:10:00,52.5,17.7,30.17,ENE,62,7.0,14.0,25,0.00,CLR,,0.00,WeatherDisplay:10.37,2013-01-17 06:10:00,
2013-01-16 22:20:00,52.5,17.7,30.17,ENE,57,12.0,14.0,25,0.00,CLR,,0.00,WeatherDisplay:10.37,2013-01-17 06:20:00,
2013-01-16 22:25:00,52.5,17.7,30.17,NE,55,12.0,16.0,25,0.00,CLR,,0.00,WeatherDisplay:10.37,2013-01-17 06:25:00,
2013-01-16 22:35:00,52.5,17.7,30.17,ENE,74,14.0,15.0,25,0.00,CLR,,0.00,WeatherDisplay:10.37,2013-01-17 06:35:00,
2013-01-16 22:40:00,52.7,17.8,30.17,ENE,61,14.0,18.0,25,0.00,CLR,,0.00,WeatherDisplay:10.37,2013-01-17 06:40:00,
2013-01-16 22:50:00,52.9,18.0,30.17,NE,53,13.0,17.0,25,0.00,CLR,,0.00,WeatherDisplay:10.37,2013-01-17 06:50:00,
2013-01-16 22:55:00,52.9,18.0,30.17,NE,53,10.0,17.0,25,0.00,CLR,,0.00,WeatherDisplay:10.37,2013-01-17 06:55:00,
2013-01-16 23:05:00,53.0,18.1,30.16,NE,51,12.0,16.0,25,0.00,CLR,,0.00,WeatherDisplay:10.37,2013-01-17 07:05:00,
2013-01-16 23:10:00,53.2,18.3,30.16,ENE,59,10.0,21.0,25,0.00,CLR,,0.00,WeatherDisplay:10.37,2013-01-17 07:10:00,
2013-01-16 23:20:00,52.9,18.0,30.16,NE,48,9.0,14.0,25,0.00,CLR,,0.00,WeatherDisplay:10.37,2013-01-17 07:20:00,
2013-01-16 23:25:00,52.5,17.7,30.16,NE,38,8.0,12.0,25,0.00,CLR,,0.00,WeatherDisplay:10.37,2013-01-17 07:25:00,
2013-01-16 23:35:00,53.1,17.2,30.16,NE,49,10.0,15.0,24,0.00,CLR,,0.00,WeatherDisplay:10.37,2013-01-17 07:35:00,
2013-01-16 23:40:00,53.0,17.2,30.16,NE,40,9.0,18.0,24,0.00,CLR,,0.00,WeatherDisplay:10.37,2013-01-17 07:40:00,
2013-01-16 23:50:00,52.9,17.0,30.15,NE,36,10.0,13.0,24,0.00,CLR,,0.00,WeatherDisplay:10.37,2013-01-17 07:50:00,
2013-01-16 23:55:00,53.2,16.3,30.15,NNE,31,13.0,17.0,23,0.00,CLR,,0.00,WeatherDisplay:10.37,2013-01-17 07:55:00,